createdAt,value
2019-02-08T00:03:57.351Z,2.69
2019-02-08T00:09:06.307Z,2.56
2019-02-08T00:14:15.253Z,2.64
2019-02-08T00:19:24.202Z,2.76
2019-02-08T00:24:33.178Z,2.55
2019-02-08T00:29:42.131Z,2.60
2019-02-08T00:34:51.078Z,2.99
2019-02-08T00:40:00.007Z,2.75
2019-02-08T00:45:09.038Z,2.99
2019-02-08T00:50:17.954Z,3.12
2019-02-08T00:55:26.973Z,3.12
2019-02-08T01:00:35.922Z,3.03
2019-02-08T01:05:44.928Z,3.04
2019-02-08T01:10:53.846Z,3.03
2019-02-08T01:16:02.810Z,3.24
2019-02-08T01:21:11.754Z,3.11
2019-02-08T01:26:20.703Z,2.80
2019-02-08T01:31:29.634Z,3.00
2019-02-08T01:36:38.605Z,3.12
2019-02-08T01:41:47.576Z,3.06
2019-02-08T01:46:56.594Z,3.11
2019-02-08T01:52:05.514Z,3.13
2019-02-08T01:57:14.516Z,3.14
2019-02-08T02:02:23.494Z,3.25
2019-02-08T02:07:32.467Z,3.37
2019-02-08T02:12:41.422Z,3.45
2019-02-08T02:17:50.462Z,3.06
2019-02-08T02:22:59.370Z,3.37
2019-02-08T02:28:08.350Z,3.37
2019-02-08T02:33:17.303Z,2.89
2019-02-08T02:38:26.246Z,2.77
2019-02-08T02:43:35.186Z,2.70
2019-02-08T02:48:44.146Z,3.66
2019-02-08T02:53:53.090Z,2.66
2019-02-08T02:59:02.083Z,2.68
2019-02-08T03:04:11.029Z,2.70
2019-02-08T03:09:19.990Z,3.00
2019-02-08T03:14:28.949Z,3.06
2019-02-08T03:19:37.931Z,3.36
2019-02-08T03:24:46.866Z,3.97
2019-02-08T03:29:55.837Z,3.45
2019-02-08T03:35:04.782Z,3.82
2019-02-08T03:40:13.757Z,4.09
2019-02-08T03:45:22.702Z,4.28
2019-02-08T03:50:31.675Z,3.62
2019-02-08T03:55:40.599Z,3.64
2019-02-08T04:00:49.614Z,3.96
2019-02-08T04:05:58.559Z,4.12
2019-02-08T04:11:07.522Z,4.00
2019-02-08T04:16:16.474Z,4.06
2019-02-08T04:21:25.430Z,4.27
2019-02-08T04:26:35.282Z,4.14
2019-02-08T04:31:42.926Z,4.71
2019-02-08T04:36:51.853Z,4.87
2019-02-08T04:42:00.906Z,5.02
2019-02-08T04:47:09.858Z,4.94
2019-02-08T04:52:18.828Z,4.54
2019-02-08T04:57:27.778Z,5.10
2019-02-08T05:02:36.722Z,5.17
2019-02-08T05:07:45.661Z,5.25
2019-02-08T05:12:54.653Z,5.57
2019-02-08T05:18:03.604Z,5.38
2019-02-08T05:23:12.546Z,5.54
2019-02-08T05:28:21.504Z,5.88
2019-02-08T05:33:30.473Z,6.36
2019-02-08T05:38:39.426Z,6.71
2019-02-08T05:43:48.459Z,6.90
2019-02-08T05:48:57.415Z,7.00
2019-02-08T05:54:06.402Z,7.61
2019-02-08T05:59:15.346Z,8.06
2019-02-08T06:04:24.392Z,7.67
2019-02-08T06:09:33.339Z,8.01
2019-02-08T06:14:42.283Z,8.18
2019-02-08T06:19:51.236Z,7.66
2019-02-08T06:25:03.732Z,8.95
2019-02-08T06:30:08.674Z,8.32
2019-02-08T06:35:17.653Z,8.66
2019-02-08T06:40:26.595Z,8.05
2019-02-08T06:45:35.570Z,9.02
2019-02-08T06:50:44.505Z,8.55
2019-02-08T06:55:53.882Z,9.50
2019-02-08T07:01:01.992Z,9.27
2019-02-08T07:06:11.002Z,9.12
2019-02-08T07:11:19.946Z,9.35
2019-02-08T07:16:28.986Z,9.93
2019-02-08T07:21:37.930Z,9.70
2019-02-08T07:26:46.892Z,10.53
2019-02-08T07:31:55.824Z,10.10
2019-02-08T07:37:04.942Z,10.23
2019-02-08T07:42:13.874Z,10.07
2019-02-08T07:47:22.878Z,10.30
2019-02-08T07:52:31.830Z,9.39
2019-02-08T07:57:40.778Z,9.52
2019-02-08T08:02:49.714Z,10.32
2019-02-08T08:08:00.325Z,9.20
2019-02-08T08:13:07.147Z,9.49
2019-02-08T08:18:16.170Z,9.58
2019-02-08T08:23:25.110Z,9.21
2019-02-08T08:28:34.079Z,9.64
2019-02-08T08:33:43.044Z,9.01
2019-02-08T08:38:52.002Z,8.10
2019-02-08T08:44:00.939Z,8.28
2019-02-08T08:49:09.979Z,7.57
2019-02-08T08:54:18.919Z,7.03
2019-02-08T08:59:29.301Z,7.32
2019-02-08T09:04:36.326Z,7.76
2019-02-08T09:09:45.435Z,6.86
2019-02-08T09:14:54.390Z,7.52
2019-02-08T09:20:03.363Z,7.06
2019-02-08T09:25:12.322Z,7.45
2019-02-08T09:30:21.318Z,6.91
2019-02-08T09:35:30.263Z,6.46
2019-02-08T09:40:39.246Z,5.92
2019-02-08T09:45:48.182Z,6.35
2019-02-08T09:50:57.161Z,6.36
2019-02-08T09:56:06.118Z,5.82
2019-02-08T10:01:15.094Z,5.49
2019-02-08T10:06:24.054Z,5.72
2019-02-08T10:11:33.042Z,5.50
2019-02-08T10:16:41.995Z,5.44
2019-02-08T10:21:50.990Z,5.08
2019-02-08T10:26:59.958Z,4.46
2019-02-08T10:32:08.998Z,4.89
2019-02-08T10:37:17.934Z,4.18
2019-02-08T10:42:26.915Z,4.47
2019-02-08T10:47:36.186Z,4.39
2019-02-08T10:52:45.174Z,4.16
2019-02-08T10:57:54.142Z,3.91
2019-02-08T11:03:03.183Z,3.79
2019-02-08T11:08:12.130Z,4.06
2019-02-08T11:13:21.145Z,3.94
2019-02-08T11:18:30.098Z,3.46
2019-02-08T11:23:39.137Z,3.56
2019-02-08T11:28:48.098Z,3.29
2019-02-08T11:33:57.075Z,3.39
2019-02-08T11:39:06.007Z,2.97
2019-02-08T11:44:15.110Z,3.36
2019-02-08T11:49:24.074Z,3.46
2019-02-08T11:54:33.102Z,3.41
2019-02-08T11:59:42.059Z,3.10
2019-02-08T12:04:51.185Z,3.02
2019-02-08T12:10:00.207Z,3.32
2019-02-08T12:15:09.110Z,3.19
2019-02-08T12:20:18.038Z,3.16
2019-02-08T12:25:27.046Z,3.19
2019-02-08T12:30:36.004Z,3.17
2019-02-08T12:35:44.999Z,3.18
2019-02-08T12:40:53.950Z,3.31
2019-02-08T12:46:02.942Z,2.78
2019-02-08T12:51:11.894Z,2.86
2019-02-08T12:56:20.851Z,2.99
2019-02-08T13:01:37.372Z,3.35
2019-02-08T13:06:38.365Z,3.27
2019-02-08T13:11:47.330Z,3.30
2019-02-08T13:16:56.307Z,3.48
2019-02-08T13:22:05.294Z,3.12
2019-02-08T13:27:14.268Z,2.86
2019-02-08T13:32:23.234Z,3.21
2019-02-08T13:37:32.186Z,3.30
2019-02-08T13:42:41.159Z,3.08
2019-02-08T13:47:50.118Z,3.11
2019-02-08T13:52:59.189Z,2.92
2019-02-08T13:58:08.149Z,3.07
2019-02-08T14:03:17.150Z,3.09
2019-02-08T14:08:26.118Z,3.27
2019-02-08T14:13:40.469Z,3.45
2019-02-08T14:18:43.550Z,3.01
2019-02-08T14:23:52.551Z,3.18
2019-02-08T14:29:01.530Z,2.80
2019-02-08T14:34:10.478Z,3.35
2019-02-08T14:39:19.534Z,3.44
2019-02-08T14:44:28.486Z,2.69
2019-02-08T14:49:37.458Z,3.07
2019-02-08T14:54:46.415Z,2.68
2019-02-08T14:59:55.410Z,2.81
2019-02-08T15:05:04.366Z,2.69
2019-02-08T15:10:13.350Z,2.79
2019-02-08T15:15:22.318Z,2.81
2019-02-08T15:20:31.310Z,2.75
2019-02-08T15:25:40.246Z,3.08
2019-02-08T15:30:49.254Z,2.78
2019-02-08T15:35:58.194Z,2.60
2019-02-08T15:41:07.158Z,2.64
2019-02-08T15:46:16.121Z,2.47
2019-02-08T15:51:25.114Z,2.51
2019-02-08T15:56:34.074Z,2.34
2019-02-08T16:01:43.034Z,2.70
2019-02-08T16:06:51.995Z,2.43
2019-02-08T16:12:01.236Z,2.37
2019-02-08T16:17:10.190Z,2.92
2019-02-08T16:22:19.182Z,2.57
2019-02-08T16:27:28.154Z,3.23
2019-02-08T16:32:37.098Z,2.59
2019-02-08T16:37:46.062Z,2.80
2019-02-08T16:42:55.013Z,2.78
2019-02-08T16:48:03.979Z,2.79
2019-02-08T16:53:12.921Z,2.87
2019-02-08T16:58:21.871Z,2.48
2019-02-08T17:03:30.814Z,2.89
2019-02-08T17:08:39.826Z,2.55
2019-02-08T17:13:48.760Z,2.89
2019-02-08T17:18:57.745Z,2.95
2019-02-08T17:24:06.678Z,2.97
2019-02-08T17:29:15.691Z,2.59
2019-02-08T17:34:24.651Z,3.05
2019-02-08T17:39:33.668Z,2.44
2019-02-08T17:44:42.623Z,2.81
2019-02-08T17:49:51.630Z,3.03
2019-02-08T17:55:00.579Z,2.91
2019-02-08T18:00:09.563Z,2.60
2019-02-08T18:05:18.526Z,2.68
2019-02-08T18:10:27.546Z,2.64
2019-02-08T18:15:36.501Z,2.87
2019-02-08T18:20:45.454Z,2.90
2019-02-08T18:25:54.413Z,2.94
2019-02-08T18:31:03.359Z,2.57
2019-02-08T18:36:12.322Z,2.78
2019-02-08T18:41:21.248Z,2.83
2019-02-08T18:46:30.217Z,3.20
2019-02-08T18:51:39.166Z,2.97
2019-02-08T18:56:48.173Z,2.74
2019-02-08T19:01:57.112Z,3.12
2019-02-08T19:07:06.100Z,3.16
2019-02-08T19:12:15.037Z,3.08
2019-02-08T19:17:24.014Z,3.37
2019-02-08T19:22:32.962Z,3.26
2019-02-08T19:27:41.938Z,3.51
2019-02-08T19:32:50.875Z,3.37
2019-02-08T19:37:59.843Z,3.84
2019-02-08T19:43:08.782Z,4.13
2019-02-08T19:48:17.803Z,3.80
2019-02-08T19:53:26.758Z,4.19
2019-02-08T19:58:36.059Z,4.63
2019-02-08T20:03:45.054Z,4.85
2019-02-08T20:08:53.994Z,4.02
2019-02-08T20:14:02.995Z,4.58
2019-02-08T20:19:11.938Z,4.39
2019-02-08T20:24:20.914Z,4.55
2019-02-08T20:29:29.886Z,4.76
2019-02-08T20:34:38.846Z,4.98
2019-02-08T20:39:47.919Z,4.26
2019-02-08T20:44:56.766Z,4.43
2019-02-08T20:50:05.726Z,5.03
2019-02-08T20:55:14.714Z,4.99
2019-02-08T21:00:25.862Z,5.26
2019-02-08T21:05:24.819Z,5.24
2019-02-08T21:10:33.778Z,5.09
2019-02-08T21:15:42.725Z,4.93
2019-02-08T21:20:51.690Z,5.29
2019-02-08T21:26:00.630Z,5.57
2019-02-08T21:31:09.620Z,4.93
2019-02-08T21:36:20.768Z,5.44
2019-02-08T21:41:19.739Z,6.25
2019-02-08T21:46:28.688Z,6.04
2019-02-08T21:51:37.663Z,6.20
2019-02-08T21:56:46.616Z,5.88
2019-02-08T22:01:55.574Z,6.08
2019-02-08T22:07:04.518Z,5.92
2019-02-08T22:12:13.498Z,6.32
2019-02-08T22:17:22.443Z,6.16
2019-02-08T22:22:31.406Z,5.96
2019-02-08T22:27:40.366Z,6.33
2019-02-08T22:32:49.406Z,6.12
2019-02-08T22:37:58.355Z,6.12
2019-02-08T22:43:07.390Z,6.39
2019-02-08T22:48:16.400Z,6.40
2019-02-08T22:53:25.311Z,6.48
2019-02-08T22:58:34.279Z,6.05
2019-02-08T23:03:43.307Z,6.28
2019-02-08T23:08:52.249Z,5.54
2019-02-08T23:14:01.218Z,5.77
2019-02-08T23:19:10.157Z,5.59
2019-02-08T23:24:19.179Z,5.49
2019-02-08T23:29:30.323Z,5.08
2019-02-08T23:34:36.619Z,5.06
2019-02-08T23:39:45.570Z,5.12
2019-02-08T23:44:54.575Z,4.45
2019-02-08T23:50:03.482Z,4.93
2019-02-08T23:55:12.534Z,5.08
